Chambéry, Francia

3:17 AM CET en Diciembre 20, 2014 (GMT +0100)
Aix-les-Bains | Change Station
CLOSE
Current Station
Aeropuerto
Location: Chambery,
Altura: 771 ft
Estaciones meteorológicas cercanas

Alt 771 ft 45.64 °N, 5.88 °E | Updated 17 minutes ago

Overcast
Nublado
46 ° F
Sensación térmica 46 ° F
N
2
Viento Variable Viento desde Sur

Hoy
Alta -- | Baja -- ° F
--% Posibilidad de precipitaciones
Ayer
Alta -- | Baja -- ° F
Precip. -- pul
8:13 AM 4:54 PM
Creciente menguante, 5% visible
Presión 30.39 pul
Visibilidad 6.2 Millas
Nubes Baja 1900 ft
Nublado 3400 ft
Punto de rocío 46 ° F
Humedad 100%
Precipitaciones 0.00 pul
Espesor de la nieve No disponible.
UV 0 de una escala de 12
Polen No disponible.
Calidad del aire No disponible.
Flu Activity No disponible.
METAR LFLB 200200Z AUTO 17002KT 9999 FEW019/// OVC034/// ///TCU 08/08 Q1029

More Conditions Fewer Conditions

Presión 30.39 pul
Visibilidad 6.2 Millas
Nubes Baja 1900 ft
Nublado 3400 ft
Punto de rocío 46 ° F
Humedad 100%
Precipitaciones 0.00 pul
Espesor de la nieve No disponible.
UV 0 de una escala de 12
Polen No disponible.
Calidad del aire No disponible.
Flu Activity No disponible.
METAR LFLB 200200Z AUTO 17002KT 9999 FEW019/// OVC034/// ///TCU 08/08 Q1029

More Conditions Fewer Conditions

10-Day Weather Forecast

Almanac

Astronomía

Dec. 20, 2014 Salida Puesta
Hora real
Crepúsculo civil
Crepúsculo náutico
Crepúsculo astronómico
Luna
Horas de luz
Horas de luz
Tomorrow will be .
, % of the Moon is Illuminated

Extremos de hoy

Máximos del país Bajas del país

Community

WunderPhotos

Upload Photos

1,779,111 ¡fotos cargadas!

WunderBlogs® & News

Nearby

Calidad del aire

  Calidad del aire Índice AQ Contaminante
Not available.

Grosos de nieve

Estación Profundido Altura

Actividad de terremotos

Ciudad Distance Mag. Tiempo y dato
Magnitud mínima muestra es 2,5.

Temperaturas de aguas costeras

Lugar Temperatura

Estaciones meteorológicas cercanas